sensor_id;sensor_type;location;lat;lon;timestamp;temperature;humidity
74458;SHT31;62896;51.032;3.712;2023-06-10T00:02:18;23.1;54
74458;SHT31;62896;51.032;3.712;2023-06-10T00:05:38;23.1;54
74458;SHT31;62896;51.032;3.712;2023-06-10T00:08:58;23.1;54
74458;SHT31;62896;51.032;3.712;2023-06-10T00:12:18;23;55
74458;SHT31;62896;51.032;3.712;2023-06-10T00:15:38;23;55
74458;SHT31;62896;51.032;3.712;2023-06-10T00:18:58;23;55
74458;SHT31;62896;51.032;3.712;2023-06-10T00:22:18;22.8;55
74458;SHT31;62896;51.032;3.712;2023-06-10T00:25:38;22.8;55
74458;SHT31;62896;51.032;3.712;2023-06-10T00:28:58;22.8;55
74458;SHT31;62896;51.032;3.712;2023-06-10T00:32:18;22.7;56
74458;SHT31;62896;51.032;3.712;2023-06-10T00:35:38;22.7;56
74458;SHT31;62896;51.032;3.712;2023-06-10T00:38:58;22.7;56
74458;SHT31;62896;51.032;3.712;2023-06-10T00:42:18;22.6;56
74458;SHT31;62896;51.032;3.712;2023-06-10T00:45:38;22.6;56
74458;SHT31;62896;51.032;3.712;2023-06-10T00:48:58;22.6;56
74458;SHT31;62896;51.032;3.712;2023-06-10T00:52:18;22.5;56
74458;SHT31;62896;51.032;3.712;2023-06-10T00:55:38;22.5;56
74458;SHT31;62896;51.032;3.712;2023-06-10T00:58:58;22.5;56
74458;SHT31;62896;51.032;3.712;2023-06-10T01:02:18;22.4;56
74458;SHT31;62896;51.032;3.712;2023-06-10T01:05:38;22.4;56
74458;SHT31;62896;51.032;3.712;2023-06-10T01:09:00;22.4;56
74458;SHT31;62896;51.032;3.712;2023-06-10T01:12:19;22.2;56
74458;SHT31;62896;51.032;3.712;2023-06-10T01:15:38;22.2;56
74458;SHT31;62896;51.032;3.712;2023-06-10T01:18:58;22.2;56
74458;SHT31;62896;51.032;3.712;2023-06-10T01:22:18;22.1;56
74458;SHT31;62896;51.032;3.712;2023-06-10T01:25:38;22.1;56
74458;SHT31;62896;51.032;3.712;2023-06-10T01:28:58;22.1;56
74458;SHT31;62896;51.032;3.712;2023-06-10T01:32:18;22;57
74458;SHT31;62896;51.032;3.712;2023-06-10T01:35:39;22;57
74458;SHT31;62896;51.032;3.712;2023-06-10T01:38:58;22;57
74458;SHT31;62896;51.032;3.712;2023-06-10T01:42:18;21.9;57
74458;SHT31;62896;51.032;3.712;2023-06-10T01:45:38;21.9;57
74458;SHT31;62896;51.032;3.712;2023-06-10T01:48:58;21.9;57
74458;SHT31;62896;51.032;3.712;2023-06-10T01:52:18;21.7;58
74458;SHT31;62896;51.032;3.712;2023-06-10T01:55:38;21.7;58
74458;SHT31;62896;51.032;3.712;2023-06-10T01:58:58;21.7;58
74458;SHT31;62896;51.032;3.712;2023-06-10T02:02:18;21.6;58
74458;SHT31;62896;51.032;3.712;2023-06-10T02:05:38;21.6;58
74458;SHT31;62896;51.032;3.712;2023-06-10T02:08:58;21.6;58
74458;SHT31;62896;51.032;3.712;2023-06-10T02:12:18;21.5;58
74458;SHT31;62896;51.032;3.712;2023-06-10T02:15:38;21.5;58
74458;SHT31;62896;51.032;3.712;2023-06-10T02:18:58;21.5;58
74458;SHT31;62896;51.032;3.712;2023-06-10T02:22:19;21.4;59
74458;SHT31;62896;51.032;3.712;2023-06-10T02:25:38;21.4;59
74458;SHT31;62896;51.032;3.712;2023-06-10T02:28:58;21.4;59
74458;SHT31;62896;51.032;3.712;2023-06-10T02:32:18;21.3;60
74458;SHT31;62896;51.032;3.712;2023-06-10T02:35:38;21.3;60
74458;SHT31;62896;51.032;3.712;2023-06-10T02:38:58;21.3;60
74458;SHT31;62896;51.032;3.712;2023-06-10T02:42:18;21.2;60
74458;SHT31;62896;51.032;3.712;2023-06-10T02:45:38;21.2;60
74458;SHT31;62896;51.032;3.712;2023-06-10T02:48:58;21.2;60
74458;SHT31;62896;51.032;3.712;2023-06-10T02:52:18;21.1;61
74458;SHT31;62896;51.032;3.712;2023-06-10T02:55:38;21.1;61
74458;SHT31;62896;51.032;3.712;2023-06-10T02:58:58;21.1;61
74458;SHT31;62896;51.032;3.712;2023-06-10T03:02:18;21;61
74458;SHT31;62896;51.032;3.712;2023-06-10T03:05:38;21;61
74458;SHT31;62896;51.032;3.712;2023-06-10T03:08:58;21;61
74458;SHT31;62896;51.032;3.712;2023-06-10T03:12:18;20.9;62
74458;SHT31;62896;51.032;3.712;2023-06-10T03:15:38;20.9;62
74458;SHT31;62896;51.032;3.712;2023-06-10T03:18:58;20.9;62
74458;SHT31;62896;51.032;3.712;2023-06-10T03:22:18;20.9;62
74458;SHT31;62896;51.032;3.712;2023-06-10T03:25:38;20.9;62
74458;SHT31;62896;51.032;3.712;2023-06-10T03:28:58;20.9;62
74458;SHT31;62896;51.032;3.712;2023-06-10T03:32:18;20.7;63
74458;SHT31;62896;51.032;3.712;2023-06-10T03:35:38;20.7;63
74458;SHT31;62896;51.032;3.712;2023-06-10T03:38:58;20.7;63
74458;SHT31;62896;51.032;3.712;2023-06-10T03:42:18;20.6;64
74458;SHT31;62896;51.032;3.712;2023-06-10T03:45:38;20.6;64
74458;SHT31;62896;51.032;3.712;2023-06-10T03:48:58;20.6;64
74458;SHT31;62896;51.032;3.712;2023-06-10T03:52:18;20.5;64
74458;SHT31;62896;51.032;3.712;2023-06-10T03:55:38;20.5;64
74458;SHT31;62896;51.032;3.712;2023-06-10T03:58:58;20.5;64
74458;SHT31;62896;51.032;3.712;2023-06-10T04:02:18;20.5;65
74458;SHT31;62896;51.032;3.712;2023-06-10T04:05:38;20.5;65
74458;SHT31;62896;51.032;3.712;2023-06-10T04:08:58;20.5;65
74458;SHT31;62896;51.032;3.712;2023-06-10T04:12:18;20.4;65
74458;SHT31;62896;51.032;3.712;2023-06-10T04:15:38;20.4;65
74458;SHT31;62896;51.032;3.712;2023-06-10T04:18:58;20.4;65
74458;SHT31;62896;51.032;3.712;2023-06-10T04:22:18;20.4;65
74458;SHT31;62896;51.032;3.712;2023-06-10T04:25:38;20.4;65
74458;SHT31;62896;51.032;3.712;2023-06-10T04:28:58;20.4;65
74458;SHT31;62896;51.032;3.712;2023-06-10T04:32:18;20.4;65
74458;SHT31;62896;51.032;3.712;2023-06-10T04:35:38;20.4;65
74458;SHT31;62896;51.032;3.712;2023-06-10T04:38:58;20.4;65
74458;SHT31;62896;51.032;3.712;2023-06-10T04:42:18;20.5;65
74458;SHT31;62896;51.032;3.712;2023-06-10T04:45:38;20.5;65
74458;SHT31;62896;51.032;3.712;2023-06-10T04:48:58;20.5;65
74458;SHT31;62896;51.032;3.712;2023-06-10T04:52:18;20.6;65
74458;SHT31;62896;51.032;3.712;2023-06-10T04:55:38;20.6;65
74458;SHT31;62896;51.032;3.712;2023-06-10T04:58:58;20.6;65
74458;SHT31;62896;51.032;3.712;2023-06-10T05:02:18;20.7;65
74458;SHT31;62896;51.032;3.712;2023-06-10T05:05:38;20.7;65
74458;SHT31;62896;51.032;3.712;2023-06-10T05:08:58;20.7;65
74458;SHT31;62896;51.032;3.712;2023-06-10T05:12:18;20.9;65
74458;SHT31;62896;51.032;3.712;2023-06-10T05:15:38;20.9;65
74458;SHT31;62896;51.032;3.712;2023-06-10T05:18:58;20.9;65
74458;SHT31;62896;51.032;3.712;2023-06-10T05:22:18;21.1;64
74458;SHT31;62896;51.032;3.712;2023-06-10T05:25:38;21.1;64
74458;SHT31;62896;51.032;3.712;2023-06-10T05:28:58;21.1;64
74458;SHT31;62896;51.032;3.712;2023-06-10T05:32:18;21.3;64
74458;SHT31;62896;51.032;3.712;2023-06-10T05:35:38;21.3;64
74458;SHT31;62896;51.032;3.712;2023-06-10T05:38:58;21.3;64
74458;SHT31;62896;51.032;3.712;2023-06-10T05:42:18;21.4;64
74458;SHT31;62896;51.032;3.712;2023-06-10T05:45:38;21.4;64
74458;SHT31;62896;51.032;3.712;2023-06-10T05:48:58;21.4;64
74458;SHT31;62896;51.032;3.712;2023-06-10T05:52:18;21.6;64
74458;SHT31;62896;51.032;3.712;2023-06-10T05:55:38;21.6;64
74458;SHT31;62896;51.032;3.712;2023-06-10T05:58:58;21.6;64
74458;SHT31;62896;51.032;3.712;2023-06-10T06:02:18;21.8;63
74458;SHT31;62896;51.032;3.712;2023-06-10T06:05:38;21.8;63
74458;SHT31;62896;51.032;3.712;2023-06-10T06:08:58;21.8;63
74458;SHT31;62896;51.032;3.712;2023-06-10T06:12:18;22.1;62
74458;SHT31;62896;51.032;3.712;2023-06-10T06:15:38;22.1;62
74458;SHT31;62896;51.032;3.712;2023-06-10T06:18:58;22.1;62
74458;SHT31;62896;51.032;3.712;2023-06-10T06:22:18;22.4;61
74458;SHT31;62896;51.032;3.712;2023-06-10T06:25:38;22.4;61
74458;SHT31;62896;51.032;3.712;2023-06-10T06:28:58;22.4;61
74458;SHT31;62896;51.032;3.712;2023-06-10T06:32:18;22.7;60
74458;SHT31;62896;51.032;3.712;2023-06-10T06:35:38;22.7;60
74458;SHT31;62896;51.032;3.712;2023-06-10T06:38:58;22.7;60
74458;SHT31;62896;51.032;3.712;2023-06-10T06:42:18;22.9;59
74458;SHT31;62896;51.032;3.712;2023-06-10T06:45:38;22.9;59
74458;SHT31;62896;51.032;3.712;2023-06-10T06:48:58;22.9;59
74458;SHT31;62896;51.032;3.712;2023-06-10T06:52:18;23.2;58
74458;SHT31;62896;51.032;3.712;2023-06-10T06:55:38;23.2;58
74458;SHT31;62896;51.032;3.712;2023-06-10T06:58:58;23.2;58
74458;SHT31;62896;51.032;3.712;2023-06-10T07:02:18;23.6;57
74458;SHT31;62896;51.032;3.712;2023-06-10T07:05:38;23.6;57
74458;SHT31;62896;51.032;3.712;2023-06-10T07:08:58;23.6;57
74458;SHT31;62896;51.032;3.712;2023-06-10T07:12:18;24;56
74458;SHT31;62896;51.032;3.712;2023-06-10T07:15:38;24;56
74458;SHT31;62896;51.032;3.712;2023-06-10T07:18:58;24;56
74458;SHT31;62896;51.032;3.712;2023-06-10T07:22:18;24.6;55
74458;SHT31;62896;51.032;3.712;2023-06-10T07:25:38;24.6;55
74458;SHT31;62896;51.032;3.712;2023-06-10T07:28:58;24.6;55
74458;SHT31;62896;51.032;3.712;2023-06-10T07:32:18;25.1;53
74458;SHT31;62896;51.032;3.712;2023-06-10T07:35:38;25.1;53
74458;SHT31;62896;51.032;3.712;2023-06-10T07:38:58;25.1;53
74458;SHT31;62896;51.032;3.712;2023-06-10T07:42:18;25.4;52
74458;SHT31;62896;51.032;3.712;2023-06-10T07:45:39;25.4;52
74458;SHT31;62896;51.032;3.712;2023-06-10T07:48:58;25.4;52
74458;SHT31;62896;51.032;3.712;2023-06-10T07:52:18;25.4;52
74458;SHT31;62896;51.032;3.712;2023-06-10T07:55:38;25.4;52
74458;SHT31;62896;51.032;3.712;2023-06-10T07:58:58;25.4;52
74458;SHT31;62896;51.032;3.712;2023-06-10T08:02:18;25.7;51
74458;SHT31;62896;51.032;3.712;2023-06-10T08:05:39;25.7;51
74458;SHT31;62896;51.032;3.712;2023-06-10T08:08:58;25.7;51
74458;SHT31;62896;51.032;3.712;2023-06-10T08:12:18;25.8;50
74458;SHT31;62896;51.032;3.712;2023-06-10T08:15:38;25.8;50
74458;SHT31;62896;51.032;3.712;2023-06-10T08:18:58;25.8;50
74458;SHT31;62896;51.032;3.712;2023-06-10T08:22:18;26.1;49
74458;SHT31;62896;51.032;3.712;2023-06-10T08:25:38;26.1;49
74458;SHT31;62896;51.032;3.712;2023-06-10T08:28:58;26.1;49
74458;SHT31;62896;51.032;3.712;2023-06-10T08:32:18;26.4;48
74458;SHT31;62896;51.032;3.712;2023-06-10T08:35:38;26.4;48
74458;SHT31;62896;51.032;3.712;2023-06-10T08:38:58;26.4;48
74458;SHT31;62896;51.032;3.712;2023-06-10T08:42:20;26.6;47
74458;SHT31;62896;51.032;3.712;2023-06-10T08:45:38;26.6;47
74458;SHT31;62896;51.032;3.712;2023-06-10T08:48:58;26.6;47
74458;SHT31;62896;51.032;3.712;2023-06-10T08:52:18;26.7;47
74458;SHT31;62896;51.032;3.712;2023-06-10T08:55:38;26.7;47
74458;SHT31;62896;51.032;3.712;2023-06-10T08:58:58;26.7;47
74458;SHT31;62896;51.032;3.712;2023-06-10T09:02:18;27.1;46
74458;SHT31;62896;51.032;3.712;2023-06-10T09:05:38;27.1;46
74458;SHT31;62896;51.032;3.712;2023-06-10T09:08:58;27.1;46
74458;SHT31;62896;51.032;3.712;2023-06-10T09:12:18;27.3;45
74458;SHT31;62896;51.032;3.712;2023-06-10T09:15:38;27.3;45
74458;SHT31;62896;51.032;3.712;2023-06-10T09:18:58;27.3;45
74458;SHT31;62896;51.032;3.712;2023-06-10T09:22:18;27.6;44
74458;SHT31;62896;51.032;3.712;2023-06-10T09:25:38;27.6;44
74458;SHT31;62896;51.032;3.712;2023-06-10T09:29:02;27.6;44
74458;SHT31;62896;51.032;3.712;2023-06-10T09:32:18;27.9;44
74458;SHT31;62896;51.032;3.712;2023-06-10T09:35:44;27.9;44
74458;SHT31;62896;51.032;3.712;2023-06-10T09:38:58;27.9;44
74458;SHT31;62896;51.032;3.712;2023-06-10T09:42:18;28;44
74458;SHT31;62896;51.032;3.712;2023-06-10T09:45:38;28;44
74458;SHT31;62896;51.032;3.712;2023-06-10T09:48:58;28;44
74458;SHT31;62896;51.032;3.712;2023-06-10T09:52:20;28.4;43
74458;SHT31;62896;51.032;3.712;2023-06-10T09:55:38;28.4;43
74458;SHT31;62896;51.032;3.712;2023-06-10T09:58:58;28.4;43
74458;SHT31;62896;51.032;3.712;2023-06-10T10:02:18;28.8;42
74458;SHT31;62896;51.032;3.712;2023-06-10T10:05:38;28.8;42
74458;SHT31;62896;51.032;3.712;2023-06-10T10:08:58;28.8;42
74458;SHT31;62896;51.032;3.712;2023-06-10T10:12:18;29.1;41
74458;SHT31;62896;51.032;3.712;2023-06-10T10:15:38;29.1;41
74458;SHT31;62896;51.032;3.712;2023-06-10T10:18:59;29.1;41
74458;SHT31;62896;51.032;3.712;2023-06-10T10:22:18;29.5;40
74458;SHT31;62896;51.032;3.712;2023-06-10T10:25:38;29.5;40
74458;SHT31;62896;51.032;3.712;2023-06-10T10:29:02;29.5;40
74458;SHT31;62896;51.032;3.712;2023-06-10T10:32:18;29.6;39
74458;SHT31;62896;51.032;3.712;2023-06-10T10:35:38;29.6;39
74458;SHT31;62896;51.032;3.712;2023-06-10T10:38:58;29.6;39
74458;SHT31;62896;51.032;3.712;2023-06-10T10:42:18;29.7;38
74458;SHT31;62896;51.032;3.712;2023-06-10T10:45:38;29.7;38
74458;SHT31;62896;51.032;3.712;2023-06-10T10:48:58;29.7;38
74458;SHT31;62896;51.032;3.712;2023-06-10T10:52:18;30;38
74458;SHT31;62896;51.032;3.712;2023-06-10T10:55:38;30;38
74458;SHT31;62896;51.032;3.712;2023-06-10T10:59:02;30;38
74458;SHT31;62896;51.032;3.712;2023-06-10T11:02:18;30.3;36
74458;SHT31;62896;51.032;3.712;2023-06-10T11:05:39;30.3;36
74458;SHT31;62896;51.032;3.712;2023-06-10T11:08:58;30.3;36
74458;SHT31;62896;51.032;3.712;2023-06-10T11:12:22;30.6;34
74458;SHT31;62896;51.032;3.712;2023-06-10T11:15:39;30.6;34
74458;SHT31;62896;51.032;3.712;2023-06-10T11:18:58;30.6;34
74458;SHT31;62896;51.032;3.712;2023-06-10T11:22:18;31;34
74458;SHT31;62896;51.032;3.712;2023-06-10T11:25:38;31;34
74458;SHT31;62896;51.032;3.712;2023-06-10T11:29:03;31;34
74458;SHT31;62896;51.032;3.712;2023-06-10T11:32:18;30.8;33
74458;SHT31;62896;51.032;3.712;2023-06-10T11:35:38;30.8;33
74458;SHT31;62896;51.032;3.712;2023-06-10T11:38:59;30.8;33
74458;SHT31;62896;51.032;3.712;2023-06-10T11:42:18;31.1;32
74458;SHT31;62896;51.032;3.712;2023-06-10T11:45:40;31.1;32
74458;SHT31;62896;51.032;3.712;2023-06-10T11:48:59;31.1;32
74458;SHT31;62896;51.032;3.712;2023-06-10T11:52:22;31.5;32
74458;SHT31;62896;51.032;3.712;2023-06-10T11:55:40;31.5;32
74458;SHT31;62896;51.032;3.712;2023-06-10T11:58:59;31.5;32
74458;SHT31;62896;51.032;3.712;2023-06-10T12:02:18;31.6;31
74458;SHT31;62896;51.032;3.712;2023-06-10T12:05:38;31.6;31
74458;SHT31;62896;51.032;3.712;2023-06-10T12:08:58;31.6;31
74458;SHT31;62896;51.032;3.712;2023-06-10T12:12:18;31.7;30
74458;SHT31;62896;51.032;3.712;2023-06-10T12:15:38;31.7;30
74458;SHT31;62896;51.032;3.712;2023-06-10T12:19:02;31.7;30
74458;SHT31;62896;51.032;3.712;2023-06-10T12:22:18;32.4;30
74458;SHT31;62896;51.032;3.712;2023-06-10T12:25:38;32.4;30
74458;SHT31;62896;51.032;3.712;2023-06-10T12:28:58;32.4;30
74458;SHT31;62896;51.032;3.712;2023-06-10T12:32:18;32;29
74458;SHT31;62896;51.032;3.712;2023-06-10T12:35:38;32;29
74458;SHT31;62896;51.032;3.712;2023-06-10T12:39:02;32;29
74458;SHT31;62896;51.032;3.712;2023-06-10T12:42:21;32.9;29
74458;SHT31;62896;51.032;3.712;2023-06-10T12:45:39;32.9;29
74458;SHT31;62896;51.032;3.712;2023-06-10T12:48:58;32.9;29
74458;SHT31;62896;51.032;3.712;2023-06-10T12:52:18;33.2;28
74458;SHT31;62896;51.032;3.712;2023-06-10T12:55:38;33.2;28
74458;SHT31;62896;51.032;3.712;2023-06-10T12:58:58;33.2;28
74458;SHT31;62896;51.032;3.712;2023-06-10T13:02:18;33.8;28
74458;SHT31;62896;51.032;3.712;2023-06-10T13:05:38;33.8;28
74458;SHT31;62896;51.032;3.712;2023-06-10T13:08:58;33.8;28
74458;SHT31;62896;51.032;3.712;2023-06-10T13:12:18;33.8;27
74458;SHT31;62896;51.032;3.712;2023-06-10T13:15:38;33.8;27
74458;SHT31;62896;51.032;3.712;2023-06-10T13:18:58;33.8;27
74458;SHT31;62896;51.032;3.712;2023-06-10T13:22:18;34.4;26
74458;SHT31;62896;51.032;3.712;2023-06-10T13:25:38;34.4;26
74458;SHT31;62896;51.032;3.712;2023-06-10T13:28:58;34.4;26
74458;SHT31;62896;51.032;3.712;2023-06-10T13:32:18;34.2;27
74458;SHT31;62896;51.032;3.712;2023-06-10T13:35:38;34.2;27
74458;SHT31;62896;51.032;3.712;2023-06-10T13:38:58;34.2;27
74458;SHT31;62896;51.032;3.712;2023-06-10T13:42:18;34.8;26
74458;SHT31;62896;51.032;3.712;2023-06-10T13:45:38;34.8;26
74458;SHT31;62896;51.032;3.712;2023-06-10T13:48:58;34.8;26
74458;SHT31;62896;51.032;3.712;2023-06-10T13:52:18;34.2;26
74458;SHT31;62896;51.032;3.712;2023-06-10T13:55:38;34.2;26
74458;SHT31;62896;51.032;3.712;2023-06-10T13:58:58;34.2;26
74458;SHT31;62896;51.032;3.712;2023-06-10T14:02:18;33;28
74458;SHT31;62896;51.032;3.712;2023-06-10T14:05:38;33;28
74458;SHT31;62896;51.032;3.712;2023-06-10T14:08:58;33;28
74458;SHT31;62896;51.032;3.712;2023-06-10T14:12:18;33.6;28
74458;SHT31;62896;51.032;3.712;2023-06-10T14:15:38;33.6;28
74458;SHT31;62896;51.032;3.712;2023-06-10T14:18:58;33.6;28
74458;SHT31;62896;51.032;3.712;2023-06-10T14:22:18;33.5;28
74458;SHT31;62896;51.032;3.712;2023-06-10T14:25:38;33.5;28
74458;SHT31;62896;51.032;3.712;2023-06-10T14:28:58;33.5;28
74458;SHT31;62896;51.032;3.712;2023-06-10T14:32:18;35.3;26
74458;SHT31;62896;51.032;3.712;2023-06-10T14:35:38;35.3;26
74458;SHT31;62896;51.032;3.712;2023-06-10T14:38:58;35.3;26
74458;SHT31;62896;51.032;3.712;2023-06-10T14:42:18;34.8;26
74458;SHT31;62896;51.032;3.712;2023-06-10T14:45:39;34.8;26
74458;SHT31;62896;51.032;3.712;2023-06-10T14:48:58;34.8;26
74458;SHT31;62896;51.032;3.712;2023-06-10T14:52:18;34.5;26
74458;SHT31;62896;51.032;3.712;2023-06-10T14:55:38;34.5;26
74458;SHT31;62896;51.032;3.712;2023-06-10T14:58:58;34.5;26
74458;SHT31;62896;51.032;3.712;2023-06-10T15:02:18;34.4;27
74458;SHT31;62896;51.032;3.712;2023-06-10T15:05:38;34.4;27
74458;SHT31;62896;51.032;3.712;2023-06-10T15:08:58;34.4;27
74458;SHT31;62896;51.032;3.712;2023-06-10T15:12:18;34.7;26
74458;SHT31;62896;51.032;3.712;2023-06-10T15:15:38;34.7;26
74458;SHT31;62896;51.032;3.712;2023-06-10T15:18:58;34.7;26
74458;SHT31;62896;51.032;3.712;2023-06-10T15:22:18;35.4;26
74458;SHT31;62896;51.032;3.712;2023-06-10T15:25:38;35.4;26
74458;SHT31;62896;51.032;3.712;2023-06-10T15:28:58;35.4;26
74458;SHT31;62896;51.032;3.712;2023-06-10T15:32:18;36;25
74458;SHT31;62896;51.032;3.712;2023-06-10T15:35:38;36;25
74458;SHT31;62896;51.032;3.712;2023-06-10T15:38:59;36;25
74458;SHT31;62896;51.032;3.712;2023-06-10T15:42:18;34;27
74458;SHT31;62896;51.032;3.712;2023-06-10T15:45:38;34;27
74458;SHT31;62896;51.032;3.712;2023-06-10T15:48:58;34;27
74458;SHT31;62896;51.032;3.712;2023-06-10T15:52:18;34.2;26
74458;SHT31;62896;51.032;3.712;2023-06-10T15:55:38;34.2;26
74458;SHT31;62896;51.032;3.712;2023-06-10T15:58:58;34.2;26
74458;SHT31;62896;51.032;3.712;2023-06-10T16:02:18;34.5;26
74458;SHT31;62896;51.032;3.712;2023-06-10T16:05:38;34.5;26
74458;SHT31;62896;51.032;3.712;2023-06-10T16:08:58;34.5;26
74458;SHT31;62896;51.032;3.712;2023-06-10T16:12:18;33.9;27
74458;SHT31;62896;51.032;3.712;2023-06-10T16:15:38;33.9;27
74458;SHT31;62896;51.032;3.712;2023-06-10T16:18:58;33.9;27
74458;SHT31;62896;51.032;3.712;2023-06-10T16:22:18;32.6;28
74458;SHT31;62896;51.032;3.712;2023-06-10T16:25:38;32.6;28
74458;SHT31;62896;51.032;3.712;2023-06-10T16:28:58;32.6;28
74458;SHT31;62896;51.032;3.712;2023-06-10T16:32:18;32.2;28
74458;SHT31;62896;51.032;3.712;2023-06-10T16:35:38;32.2;28
74458;SHT31;62896;51.032;3.712;2023-06-10T16:38:58;32.2;28
74458;SHT31;62896;51.032;3.712;2023-06-10T16:42:18;32.2;29
74458;SHT31;62896;51.032;3.712;2023-06-10T16:45:38;32.2;29
74458;SHT31;62896;51.032;3.712;2023-06-10T16:48:58;32.2;29
74458;SHT31;62896;51.032;3.712;2023-06-10T16:52:18;32;29
74458;SHT31;62896;51.032;3.712;2023-06-10T16:55:38;32;29
74458;SHT31;62896;51.032;3.712;2023-06-10T16:58:58;32;29
74458;SHT31;62896;51.032;3.712;2023-06-10T17:02:18;32;29
74458;SHT31;62896;51.032;3.712;2023-06-10T17:05:38;32;29
74458;SHT31;62896;51.032;3.712;2023-06-10T17:08:58;32;29
74458;SHT31;62896;51.032;3.712;2023-06-10T17:12:18;31.9;29
74458;SHT31;62896;51.032;3.712;2023-06-10T17:15:38;31.9;29
74458;SHT31;62896;51.032;3.712;2023-06-10T17:18:58;31.9;29
74458;SHT31;62896;51.032;3.712;2023-06-10T17:22:18;31.6;29
74458;SHT31;62896;51.032;3.712;2023-06-10T17:25:38;31.6;29
74458;SHT31;62896;51.032;3.712;2023-06-10T17:28:58;31.6;29
74458;SHT31;62896;51.032;3.712;2023-06-10T17:32:18;31.3;30
74458;SHT31;62896;51.032;3.712;2023-06-10T17:35:38;31.3;30
74458;SHT31;62896;51.032;3.712;2023-06-10T17:38:58;31.3;30
74458;SHT31;62896;51.032;3.712;2023-06-10T17:42:18;31.2;30
74458;SHT31;62896;51.032;3.712;2023-06-10T17:45:38;31.2;30
74458;SHT31;62896;51.032;3.712;2023-06-10T17:48:58;31.2;30
74458;SHT31;62896;51.032;3.712;2023-06-10T17:52:18;31.2;30
74458;SHT31;62896;51.032;3.712;2023-06-10T17:55:38;31.2;30
74458;SHT31;62896;51.032;3.712;2023-06-10T17:58:58;31.2;30
74458;SHT31;62896;51.032;3.712;2023-06-10T18:02:18;31;30
74458;SHT31;62896;51.032;3.712;2023-06-10T18:05:38;31;30
74458;SHT31;62896;51.032;3.712;2023-06-10T18:08:59;31;30
74458;SHT31;62896;51.032;3.712;2023-06-10T18:12:18;30.7;30
74458;SHT31;62896;51.032;3.712;2023-06-10T18:15:38;30.7;30
74458;SHT31;62896;51.032;3.712;2023-06-10T18:18:58;30.7;30
74458;SHT31;62896;51.032;3.712;2023-06-10T18:22:18;30.6;30
74458;SHT31;62896;51.032;3.712;2023-06-10T18:25:38;30.6;30
74458;SHT31;62896;51.032;3.712;2023-06-10T18:28:58;30.6;30
74458;SHT31;62896;51.032;3.712;2023-06-10T18:32:18;30.6;30
74458;SHT31;62896;51.032;3.712;2023-06-10T18:35:38;30.6;30
74458;SHT31;62896;51.032;3.712;2023-06-10T18:38:58;30.6;30
74458;SHT31;62896;51.032;3.712;2023-06-10T18:42:18;30.4;31
74458;SHT31;62896;51.032;3.712;2023-06-10T18:45:38;30.4;31
74458;SHT31;62896;51.032;3.712;2023-06-10T18:48:58;30.4;31
74458;SHT31;62896;51.032;3.712;2023-06-10T18:52:18;30.2;32
74458;SHT31;62896;51.032;3.712;2023-06-10T18:55:38;30.2;32
74458;SHT31;62896;51.032;3.712;2023-06-10T18:58:58;30.2;32
74458;SHT31;62896;51.032;3.712;2023-06-10T19:02:18;30.1;32
74458;SHT31;62896;51.032;3.712;2023-06-10T19:05:38;30.1;32
74458;SHT31;62896;51.032;3.712;2023-06-10T19:08:58;30.1;32
74458;SHT31;62896;51.032;3.712;2023-06-10T19:12:18;29.9;33
74458;SHT31;62896;51.032;3.712;2023-06-10T19:15:38;29.9;33
74458;SHT31;62896;51.032;3.712;2023-06-10T19:18:58;29.9;33
74458;SHT31;62896;51.032;3.712;2023-06-10T19:22:18;29.6;34
74458;SHT31;62896;51.032;3.712;2023-06-10T19:25:38;29.6;34
74458;SHT31;62896;51.032;3.712;2023-06-10T19:28:58;29.6;34
74458;SHT31;62896;51.032;3.712;2023-06-10T19:32:18;29.4;34
74458;SHT31;62896;51.032;3.712;2023-06-10T19:35:38;29.4;34
74458;SHT31;62896;51.032;3.712;2023-06-10T19:38:58;29.4;34
74458;SHT31;62896;51.032;3.712;2023-06-10T19:42:18;29.1;35
74458;SHT31;62896;51.032;3.712;2023-06-10T19:45:38;29.1;35
74458;SHT31;62896;51.032;3.712;2023-06-10T19:48:58;29.1;35
74458;SHT31;62896;51.032;3.712;2023-06-10T19:52:18;28.8;36
74458;SHT31;62896;51.032;3.712;2023-06-10T19:55:38;28.8;36
74458;SHT31;62896;51.032;3.712;2023-06-10T19:58:58;28.8;36
74458;SHT31;62896;51.032;3.712;2023-06-10T20:02:18;28.5;36
74458;SHT31;62896;51.032;3.712;2023-06-10T20:05:38;28.5;36
74458;SHT31;62896;51.032;3.712;2023-06-10T20:08:58;28.5;36
74458;SHT31;62896;51.032;3.712;2023-06-10T20:12:18;28.2;37
74458;SHT31;62896;51.032;3.712;2023-06-10T20:15:38;28.2;37
74458;SHT31;62896;51.032;3.712;2023-06-10T20:18:58;28.2;37
74458;SHT31;62896;51.032;3.712;2023-06-10T20:22:19;28;38
74458;SHT31;62896;51.032;3.712;2023-06-10T20:25:38;28;38
74458;SHT31;62896;51.032;3.712;2023-06-10T20:28:59;28;38
74458;SHT31;62896;51.032;3.712;2023-06-10T20:32:18;27.7;39
74458;SHT31;62896;51.032;3.712;2023-06-10T20:35:38;27.7;39
74458;SHT31;62896;51.032;3.712;2023-06-10T20:38:58;27.7;39
74458;SHT31;62896;51.032;3.712;2023-06-10T20:42:18;27.5;40
74458;SHT31;62896;51.032;3.712;2023-06-10T20:45:38;27.5;40
74458;SHT31;62896;51.032;3.712;2023-06-10T20:48:59;27.5;40
74458;SHT31;62896;51.032;3.712;2023-06-10T20:52:18;27.3;41
74458;SHT31;62896;51.032;3.712;2023-06-10T20:55:38;27.3;41
74458;SHT31;62896;51.032;3.712;2023-06-10T20:58:59;27.3;41
74458;SHT31;62896;51.032;3.712;2023-06-10T21:02:19;27;42
74458;SHT31;62896;51.032;3.712;2023-06-10T21:05:38;27;42
74458;SHT31;62896;51.032;3.712;2023-06-10T21:08:59;27;42
74458;SHT31;62896;51.032;3.712;2023-06-10T21:12:18;26.8;43
74458;SHT31;62896;51.032;3.712;2023-06-10T21:15:39;26.8;43
74458;SHT31;62896;51.032;3.712;2023-06-10T21:18:59;26.8;43
74458;SHT31;62896;51.032;3.712;2023-06-10T21:22:19;26.6;43
74458;SHT31;62896;51.032;3.712;2023-06-10T21:25:39;26.6;43
74458;SHT31;62896;51.032;3.712;2023-06-10T21:28:59;26.6;43
74458;SHT31;62896;51.032;3.712;2023-06-10T21:32:19;26.5;44
74458;SHT31;62896;51.032;3.712;2023-06-10T21:35:39;26.5;44
74458;SHT31;62896;51.032;3.712;2023-06-10T21:38:59;26.5;44
74458;SHT31;62896;51.032;3.712;2023-06-10T21:42:19;26.3;44
74458;SHT31;62896;51.032;3.712;2023-06-10T21:45:39;26.3;44
74458;SHT31;62896;51.032;3.712;2023-06-10T21:48:59;26.3;44
74458;SHT31;62896;51.032;3.712;2023-06-10T21:52:19;26.2;44
74458;SHT31;62896;51.032;3.712;2023-06-10T21:55:39;26.2;44
74458;SHT31;62896;51.032;3.712;2023-06-10T21:58:59;26.2;44
74458;SHT31;62896;51.032;3.712;2023-06-10T22:02:19;25.9;45
74458;SHT31;62896;51.032;3.712;2023-06-10T22:05:39;25.9;45
74458;SHT31;62896;51.032;3.712;2023-06-10T22:08:59;25.9;45
74458;SHT31;62896;51.032;3.712;2023-06-10T22:12:19;25.7;46
74458;SHT31;62896;51.032;3.712;2023-06-10T22:15:39;25.7;46
74458;SHT31;62896;51.032;3.712;2023-06-10T22:18:59;25.7;46
74458;SHT31;62896;51.032;3.712;2023-06-10T22:22:19;25.4;46
74458;SHT31;62896;51.032;3.712;2023-06-10T22:25:39;25.4;46
74458;SHT31;62896;51.032;3.712;2023-06-10T22:28:59;25.4;46
74458;SHT31;62896;51.032;3.712;2023-06-10T22:32:19;25.2;47
74458;SHT31;62896;51.032;3.712;2023-06-10T22:35:39;25.2;47